Redwood City, CA

3:18 PM PDT on September 22, 2014 (GMT -0700)
Redwood Shores - Baltic Circle | Change Station
CLOSE
Current Station
Personal Weather Station
Location: Redwood City, CA
Elevation: -10 ft
Nearby Weather Stations

Elev -10 ft 37.54 °N, 122.24 °W | Updated 9 minutes ago

Partly Cloudy
Partly Cloudy
79.7 °F
Feels Like 81 °F
N
0.0
Wind Variable Wind from NW
Gusts 4.0 mph

Today
High -- | Low -- °F
--% Chance of Precip.
Yesterday
High -- | Low -- °F
Precip. -- in
6:56 AM 7:05 PM
Waning Crescent, 2% visible
Pressure 29.99 in
Visibility 10.0 miles
Clouds Few 15000 ft
Heat Index 81 °F
Dew Point 63 °F
Humidity 57%
Rainfall 0.00 in
Snow Depth 0 in , 0 in , 0 in
UV 6 out of 12
Pollen 3.70 out of 12
Ozone Good
Flu Activity Not available.
METAR KSQL 222147Z 34009KT 10SM FEW150 24/14 A2999

More Conditions Fewer Conditions

Pressure 29.99 in
Visibility 10.0 miles
Clouds Few 15000 ft
Heat Index 81 °F
Dew Point 63 °F
Humidity 57%
Rainfall 0.00 in
Snow Depth 0 in , 0 in , 0 in
UV 6 out of 12
Pollen 3.70 out of 12
Ozone Good
Flu Activity Not available.
METAR KSQL 222147Z 34009KT 10SM FEW150 24/14 A2999

More Conditions Fewer Conditions

10-Day Weather Forecast

Almanac

Astronomy

Sep. 22, 2014 Rise Set
Actual Time 6:56 AM PDT 7:05 PM PDT
Civil Twilight 6:30 AM PDT 7:31 PM PDT
Nautical Twilight 6:00 AM PDT 8:02 PM PDT
Astronomical Twilight 5:29 AM PDT 8:33 PM PDT
Moon 5:31 AM PDT 6:15 PM PDT
Length of Visible Light 13h 01m
Length of Day
12h 08m
Tomorrow will be 2m 23s shorter.
Waning Crescent, 2% of the Moon is Illuminated
Today
Waning Crescent
Sep 24
New
Oct 1
First Quarter
Oct 8
Full
Oct 15
Last Quarter

Today's Extremes

State Highs State Lows

Community

WunderPhotos

Upload Photos

1,755,539 photos uploaded!

Nearby

Air Quality

  Air Quality AQ Index Pollutant
Yesterday Good
OZONE
Yesterday Good
PM2.5
Current Good
OZONE
Monday Good
PM2.5
Tuesday Good
PM2.5
Wednesday Good
PM2.5
Thursday Good
OZONE
Friday Good
OZONE
Saturday Good
OZONE

Snow Depth

Station Depth Elevation
Rubicon #2 0 in 7500 ft
Leavitt Meadows 0 in 7200 ft
Adin Mountain 0 in 6200 ft
Summit Meadow 0 in 9122 ft
CSS Lab 3 in 6900 ft

Earthquake Activity

City Distance Mag. Time & Date
Yountville, California 56 miles 2.6 1:17 PM PDT
2014-09-21
Cloverdale, California 96 miles 2.5 9:15 PM PDT
2014-09-20
Livermore, California 30 miles 2.6 3:37 AM PDT
2014-09-19
Minimum magnitude displayed is 2.5.

Coastal Water Temperatures

Place Temperature
No Stations Reporting

Nearby Weather Stations